sensor_id;sensor_type;location;lat;lon;timestamp;P1;durP1;ratioP1;P2;durP2;ratioP2
68315;SDS011;55508;54.368;18.406;2022-10-22T00:00:10;55.80;;;35.25;;
68315;SDS011;55508;54.368;18.406;2022-10-22T00:02:39;52.58;;;35.65;;
68315;SDS011;55508;54.368;18.406;2022-10-22T00:05:06;56.60;;;35.65;;
68315;SDS011;55508;54.368;18.406;2022-10-22T00:07:34;56.22;;;36.42;;
68315;SDS011;55508;54.368;18.406;2022-10-22T00:10:01;56.67;;;38.17;;
68315;SDS011;55508;54.368;18.406;2022-10-22T00:12:30;53.58;;;36.72;;
68315;SDS011;55508;54.368;18.406;2022-10-22T00:14:57;56.15;;;38.30;;
68315;SDS011;55508;54.368;18.406;2022-10-22T00:17:24;60.58;;;38.60;;
68315;SDS011;55508;54.368;18.406;2022-10-22T00:19:51;59.17;;;38.10;;
68315;SDS011;55508;54.368;18.406;2022-10-22T00:22:18;61.47;;;39.05;;
68315;SDS011;55508;54.368;18.406;2022-10-22T00:24:45;62.92;;;40.28;;
68315;SDS011;55508;54.368;18.406;2022-10-22T00:27:12;50.92;;;36.25;;
68315;SDS011;55508;54.368;18.406;2022-10-22T00:29:40;61.03;;;38.97;;
68315;SDS011;55508;54.368;18.406;2022-10-22T00:32:07;60.10;;;38.60;;
68315;SDS011;55508;54.368;18.406;2022-10-22T00:34:34;59.25;;;40.35;;
68315;SDS011;55508;54.368;18.406;2022-10-22T00:37:02;60.38;;;39.00;;
68315;SDS011;55508;54.368;18.406;2022-10-22T00:39:29;64.70;;;41.47;;
68315;SDS011;55508;54.368;18.406;2022-10-22T00:41:56;54.80;;;37.88;;
68315;SDS011;55508;54.368;18.406;2022-10-22T00:50:37;58.92;;;39.63;;
68315;SDS011;55508;54.368;18.406;2022-10-22T00:53:11;58.97;;;38.90;;
68315;SDS011;55508;54.368;18.406;2022-10-22T00:55:40;56.97;;;39.08;;
68315;SDS011;55508;54.368;18.406;2022-10-22T00:58:08;58.30;;;39.22;;
68315;SDS011;55508;54.368;18.406;2022-10-22T01:00:36;58.35;;;40.55;;
68315;SDS011;55508;54.368;18.406;2022-10-22T01:03:03;57.20;;;39.42;;
68315;SDS011;55508;54.368;18.406;2022-10-22T01:05:31;60.03;;;40.30;;
68315;SDS011;55508;54.368;18.406;2022-10-22T01:08:04;60.17;;;38.53;;
68315;SDS011;55508;54.368;18.406;2022-10-22T01:10:50;57.83;;;39.03;;
68315;SDS011;55508;54.368;18.406;2022-10-22T01:13:48;61.72;;;39.97;;
68315;SDS011;55508;54.368;18.406;2022-10-22T01:22:08;60.83;;;40.35;;
68315;SDS011;55508;54.368;18.406;2022-10-22T01:24:41;66.07;;;42.05;;
68315;SDS011;55508;54.368;18.406;2022-10-22T01:27:52;61.67;;;41.05;;
68315;SDS011;55508;54.368;18.406;2022-10-22T01:30:12;61.40;;;40.25;;
68315;SDS011;55508;54.368;18.406;2022-10-22T01:32:42;58.97;;;40.72;;
68315;SDS011;55508;54.368;18.406;2022-10-22T01:35:13;63.47;;;40.45;;
68315;SDS011;55508;54.368;18.406;2022-10-22T01:38:06;57.63;;;40.17;;
68315;SDS011;55508;54.368;18.406;2022-10-22T01:40:32;65.22;;;42.17;;
68315;SDS011;55508;54.368;18.406;2022-10-22T01:43:03;62.92;;;42.03;;
68315;SDS011;55508;54.368;18.406;2022-10-22T01:45:33;63.58;;;40.42;;
68315;SDS011;55508;54.368;18.406;2022-10-22T01:50:41;64.95;;;42.10;;
68315;SDS011;55508;54.368;18.406;2022-10-22T01:56:08;66.90;;;43.55;;
68315;SDS011;55508;54.368;18.406;2022-10-22T01:59:18;62.08;;;43.13;;
68315;SDS011;55508;54.368;18.406;2022-10-22T02:01:56;68.25;;;44.92;;
68315;SDS011;55508;54.368;18.406;2022-10-22T02:04:45;63.78;;;42.30;;
68315;SDS011;55508;54.368;18.406;2022-10-22T02:07:17;65.60;;;41.53;;
68315;SDS011;55508;54.368;18.406;2022-10-22T02:09:47;69.00;;;42.72;;
68315;SDS011;55508;54.368;18.406;2022-10-22T02:12:15;63.88;;;40.78;;
68315;SDS011;55508;54.368;18.406;2022-10-22T02:14:43;61.30;;;40.85;;
68315;SDS011;55508;54.368;18.406;2022-10-22T02:17:12;68.97;;;42.20;;
68315;SDS011;55508;54.368;18.406;2022-10-22T02:22:38;63.42;;;40.88;;
68315;SDS011;55508;54.368;18.406;2022-10-22T02:25:08;65.55;;;40.80;;
68315;SDS011;55508;54.368;18.406;2022-10-22T02:30:11;63.15;;;40.85;;
68315;SDS011;55508;54.368;18.406;2022-10-22T02:35:36;66.32;;;42.15;;
68315;SDS011;55508;54.368;18.406;2022-10-22T02:38:06;65.97;;;42.00;;
68315;SDS011;55508;54.368;18.406;2022-10-22T02:40:33;69.07;;;42.22;;
68315;SDS011;55508;54.368;18.406;2022-10-22T02:43:02;66.50;;;42.35;;
68315;SDS011;55508;54.368;18.406;2022-10-22T02:45:30;65.50;;;42.42;;
68315;SDS011;55508;54.368;18.406;2022-10-22T02:47:57;72.75;;;43.40;;
68315;SDS011;55508;54.368;18.406;2022-10-22T02:50:24;65.47;;;41.55;;
68315;SDS011;55508;54.368;18.406;2022-10-22T02:52:51;66.30;;;42.65;;
68315;SDS011;55508;54.368;18.406;2022-10-22T02:55:18;63.30;;;41.90;;
68315;SDS011;55508;54.368;18.406;2022-10-22T02:57:45;69.20;;;43.20;;
68315;SDS011;55508;54.368;18.406;2022-10-22T03:00:13;67.03;;;43.03;;
68315;SDS011;55508;54.368;18.406;2022-10-22T03:02:40;72.57;;;43.70;;
68315;SDS011;55508;54.368;18.406;2022-10-22T03:05:07;67.97;;;42.80;;
68315;SDS011;55508;54.368;18.406;2022-10-22T03:07:34;65.30;;;42.15;;
68315;SDS011;55508;54.368;18.406;2022-10-22T03:10:02;65.57;;;42.05;;
68315;SDS011;55508;54.368;18.406;2022-10-22T03:12:29;65.25;;;41.97;;
68315;SDS011;55508;54.368;18.406;2022-10-22T03:14:56;72.70;;;43.97;;
68315;SDS011;55508;54.368;18.406;2022-10-22T03:17:23;75.78;;;44.22;;
68315;SDS011;55508;54.368;18.406;2022-10-22T03:19:50;66.60;;;42.78;;
68315;SDS011;55508;54.368;18.406;2022-10-22T03:22:21;68.75;;;43.63;;
68315;SDS011;55508;54.368;18.406;2022-10-22T03:24:51;74.20;;;44.65;;
68315;SDS011;55508;54.368;18.406;2022-10-22T03:27:21;69.90;;;43.10;;
68315;SDS011;55508;54.368;18.406;2022-10-22T03:29:49;73.78;;;45.53;;
68315;SDS011;55508;54.368;18.406;2022-10-22T03:32:17;74.30;;;44.80;;
68315;SDS011;55508;54.368;18.406;2022-10-22T03:34:44;77.22;;;47.72;;
68315;SDS011;55508;54.368;18.406;2022-10-22T03:37:11;69.63;;;44.00;;
68315;SDS011;55508;54.368;18.406;2022-10-22T03:39:38;67.57;;;43.30;;
68315;SDS011;55508;54.368;18.406;2022-10-22T03:42:05;79.38;;;48.60;;
68315;SDS011;55508;54.368;18.406;2022-10-22T03:44:34;81.07;;;47.97;;
68315;SDS011;55508;54.368;18.406;2022-10-22T03:47:03;82.55;;;47.13;;
68315;SDS011;55508;54.368;18.406;2022-10-22T03:49:30;79.82;;;47.90;;
68315;SDS011;55508;54.368;18.406;2022-10-22T03:52:03;74.60;;;45.47;;
68315;SDS011;55508;54.368;18.406;2022-10-22T03:54:34;72.82;;;46.00;;
68315;SDS011;55508;54.368;18.406;2022-10-22T03:57:02;73.68;;;44.40;;
68315;SDS011;55508;54.368;18.406;2022-10-22T03:59:34;76.00;;;45.80;;
68315;SDS011;55508;54.368;18.406;2022-10-22T04:02:04;68.00;;;44.03;;
68315;SDS011;55508;54.368;18.406;2022-10-22T04:04:31;79.65;;;46.72;;
68315;SDS011;55508;54.368;18.406;2022-10-22T04:06:59;72.47;;;45.15;;
68315;SDS011;55508;54.368;18.406;2022-10-22T04:09:25;79.28;;;46.97;;
68315;SDS011;55508;54.368;18.406;2022-10-22T04:11:52;68.38;;;44.45;;
68315;SDS011;55508;54.368;18.406;2022-10-22T04:14:19;72.18;;;45.42;;
68315;SDS011;55508;54.368;18.406;2022-10-22T04:16:47;68.70;;;45.40;;
68315;SDS011;55508;54.368;18.406;2022-10-22T04:19:14;69.35;;;45.05;;
68315;SDS011;55508;54.368;18.406;2022-10-22T04:21:40;70.50;;;44.53;;
68315;SDS011;55508;54.368;18.406;2022-10-22T04:24:08;72.95;;;43.85;;
68315;SDS011;55508;54.368;18.406;2022-10-22T04:26:35;73.72;;;45.55;;
68315;SDS011;55508;54.368;18.406;2022-10-22T04:29:02;74.43;;;48.03;;
68315;SDS011;55508;54.368;18.406;2022-10-22T04:31:29;74.53;;;46.72;;
68315;SDS011;55508;54.368;18.406;2022-10-22T04:33:57;70.18;;;46.22;;
68315;SDS011;55508;54.368;18.406;2022-10-22T04:36:25;74.93;;;46.30;;
68315;SDS011;55508;54.368;18.406;2022-10-22T04:38:54;76.18;;;46.05;;
68315;SDS011;55508;54.368;18.406;2022-10-22T04:41:30;75.10;;;46.08;;
68315;SDS011;55508;54.368;18.406;2022-10-22T04:43:58;71.18;;;44.45;;
68315;SDS011;55508;54.368;18.406;2022-10-22T04:46:26;75.43;;;45.05;;
68315;SDS011;55508;54.368;18.406;2022-10-22T04:48:54;71.15;;;44.40;;
68315;SDS011;55508;54.368;18.406;2022-10-22T04:51:22;76.18;;;45.25;;
68315;SDS011;55508;54.368;18.406;2022-10-22T04:53:49;83.65;;;46.75;;
68315;SDS011;55508;54.368;18.406;2022-10-22T04:56:21;83.20;;;46.42;;
68315;SDS011;55508;54.368;18.406;2022-10-22T04:58:51;74.20;;;45.60;;
68315;SDS011;55508;54.368;18.406;2022-10-22T05:03:54;66.43;;;40.83;;
68315;SDS011;55508;54.368;18.406;2022-10-22T05:06:22;74.07;;;45.05;;
68315;SDS011;55508;54.368;18.406;2022-10-22T05:08:54;74.43;;;44.80;;
68315;SDS011;55508;54.368;18.406;2022-10-22T05:11:24;80.63;;;47.03;;
68315;SDS011;55508;54.368;18.406;2022-10-22T05:13:57;77.45;;;47.42;;
68315;SDS011;55508;54.368;18.406;2022-10-22T05:16:26;71.47;;;45.88;;
68315;SDS011;55508;54.368;18.406;2022-10-22T05:18:54;80.60;;;49.22;;
68315;SDS011;55508;54.368;18.406;2022-10-22T05:21:23;85.70;;;51.83;;
68315;SDS011;55508;54.368;18.406;2022-10-22T05:23:50;91.30;;;55.75;;
68315;SDS011;55508;54.368;18.406;2022-10-22T05:26:21;94.38;;;56.55;;
68315;SDS011;55508;54.368;18.406;2022-10-22T05:28:49;91.38;;;55.03;;
68315;SDS011;55508;54.368;18.406;2022-10-22T05:31:17;97.63;;;55.25;;
68315;SDS011;55508;54.368;18.406;2022-10-22T05:33:44;101.82;;;59.70;;
68315;SDS011;55508;54.368;18.406;2022-10-22T05:36:13;93.53;;;56.65;;
68315;SDS011;55508;54.368;18.406;2022-10-22T05:38:42;81.07;;;53.33;;
68315;SDS011;55508;54.368;18.406;2022-10-22T05:41:10;93.45;;;57.90;;
68315;SDS011;55508;54.368;18.406;2022-10-22T05:43:44;81.13;;;51.40;;
68315;SDS011;55508;54.368;18.406;2022-10-22T05:46:12;75.63;;;49.15;;
68315;SDS011;55508;54.368;18.406;2022-10-22T05:48:48;92.43;;;51.78;;
68315;SDS011;55508;54.368;18.406;2022-10-22T05:51:19;89.73;;;51.00;;
68315;SDS011;55508;54.368;18.406;2022-10-22T05:53:49;128.43;;;65.95;;
68315;SDS011;55508;54.368;18.406;2022-10-22T05:56:20;240.30;;;111.20;;
68315;SDS011;55508;54.368;18.406;2022-10-22T05:58:47;214.73;;;102.63;;
68315;SDS011;55508;54.368;18.406;2022-10-22T06:01:25;256.40;;;117.90;;
68315;SDS011;55508;54.368;18.406;2022-10-22T06:04:01;340.17;;;170.93;;
68315;SDS011;55508;54.368;18.406;2022-10-22T06:06:32;230.75;;;126.50;;
68315;SDS011;55508;54.368;18.406;2022-10-22T06:09:21;129.45;;;78.20;;
68315;SDS011;55508;54.368;18.406;2022-10-22T06:11:56;101.63;;;62.72;;
68315;SDS011;55508;54.368;18.406;2022-10-22T06:14:23;95.90;;;59.78;;
68315;SDS011;55508;54.368;18.406;2022-10-22T06:16:52;93.85;;;59.78;;
68315;SDS011;55508;54.368;18.406;2022-10-22T06:19:21;93.25;;;59.00;;
68315;SDS011;55508;54.368;18.406;2022-10-22T06:21:48;86.75;;;54.72;;
68315;SDS011;55508;54.368;18.406;2022-10-22T06:24:15;85.88;;;55.85;;
68315;SDS011;55508;54.368;18.406;2022-10-22T06:26:42;91.97;;;58.45;;
68315;SDS011;55508;54.368;18.406;2022-10-22T06:29:09;142.57;;;75.30;;
68315;SDS011;55508;54.368;18.406;2022-10-22T06:31:37;195.70;;;89.80;;
68315;SDS011;55508;54.368;18.406;2022-10-22T06:34:05;168.10;;;80.85;;
68315;SDS011;55508;54.368;18.406;2022-10-22T06:36:33;101.43;;;60.15;;
68315;SDS011;55508;54.368;18.406;2022-10-22T06:39:00;84.72;;;54.38;;
68315;SDS011;55508;54.368;18.406;2022-10-22T06:41:27;98.88;;;60.53;;
68315;SDS011;55508;54.368;18.406;2022-10-22T06:43:55;99.45;;;62.25;;
68315;SDS011;55508;54.368;18.406;2022-10-22T06:46:23;116.70;;;68.32;;
68315;SDS011;55508;54.368;18.406;2022-10-22T06:48:51;115.30;;;70.75;;
68315;SDS011;55508;54.368;18.406;2022-10-22T06:51:19;112.00;;;70.78;;
68315;SDS011;55508;54.368;18.406;2022-10-22T06:53:47;94.28;;;59.40;;
68315;SDS011;55508;54.368;18.406;2022-10-22T06:56:15;85.05;;;53.17;;
68315;SDS011;55508;54.368;18.406;2022-10-22T06:58:52;103.30;;;59.40;;
68315;SDS011;55508;54.368;18.406;2022-10-22T07:01:21;159.63;;;80.60;;
68315;SDS011;55508;54.368;18.406;2022-10-22T07:03:53;153.60;;;89.97;;
68315;SDS011;55508;54.368;18.406;2022-10-22T07:06:20;108.15;;;68.65;;
68315;SDS011;55508;54.368;18.406;2022-10-22T07:08:48;99.03;;;60.95;;
68315;SDS011;55508;54.368;18.406;2022-10-22T07:11:20;123.75;;;69.40;;
68315;SDS011;55508;54.368;18.406;2022-10-22T07:14:06;136.25;;;71.32;;
68315;SDS011;55508;54.368;18.406;2022-10-22T07:16:33;110.13;;;63.20;;
68315;SDS011;55508;54.368;18.406;2022-10-22T07:19:00;87.63;;;56.40;;
68315;SDS011;55508;54.368;18.406;2022-10-22T07:21:28;77.00;;;53.08;;
68315;SDS011;55508;54.368;18.406;2022-10-22T07:23:56;85.47;;;52.60;;
68315;SDS011;55508;54.368;18.406;2022-10-22T07:26:23;88.10;;;55.85;;
68315;SDS011;55508;54.368;18.406;2022-10-22T07:28:50;86.85;;;55.00;;
68315;SDS011;55508;54.368;18.406;2022-10-22T07:31:18;85.68;;;57.53;;
68315;SDS011;55508;54.368;18.406;2022-10-22T07:33:45;87.43;;;58.60;;
68315;SDS011;55508;54.368;18.406;2022-10-22T07:36:13;86.70;;;56.10;;
68315;SDS011;55508;54.368;18.406;2022-10-22T07:38:44;94.30;;;57.80;;
68315;SDS011;55508;54.368;18.406;2022-10-22T07:41:15;91.95;;;59.85;;
68315;SDS011;55508;54.368;18.406;2022-10-22T07:43:43;95.22;;;59.20;;
68315;SDS011;55508;54.368;18.406;2022-10-22T07:46:10;97.00;;;63.10;;
68315;SDS011;55508;54.368;18.406;2022-10-22T07:48:37;112.97;;;66.80;;
68315;SDS011;55508;54.368;18.406;2022-10-22T07:51:05;108.45;;;67.78;;
68315;SDS011;55508;54.368;18.406;2022-10-22T07:53:33;109.38;;;69.38;;
68315;SDS011;55508;54.368;18.406;2022-10-22T07:56:00;119.45;;;76.18;;
68315;SDS011;55508;54.368;18.406;2022-10-22T07:58:27;123.03;;;72.57;;
68315;SDS011;55508;54.368;18.406;2022-10-22T08:00:54;107.68;;;66.18;;
68315;SDS011;55508;54.368;18.406;2022-10-22T08:03:23;105.47;;;67.60;;
68315;SDS011;55508;54.368;18.406;2022-10-22T08:05:50;107.07;;;67.45;;
68315;SDS011;55508;54.368;18.406;2022-10-22T08:08:17;99.38;;;63.92;;
68315;SDS011;55508;54.368;18.406;2022-10-22T08:10:45;96.30;;;62.47;;
68315;SDS011;55508;54.368;18.406;2022-10-22T08:13:13;95.82;;;60.67;;
68315;SDS011;55508;54.368;18.406;2022-10-22T08:15:40;88.82;;;58.63;;
68315;SDS011;55508;54.368;18.406;2022-10-22T08:18:08;88.82;;;59.50;;
68315;SDS011;55508;54.368;18.406;2022-10-22T08:20:35;87.40;;;57.17;;
68315;SDS011;55508;54.368;18.406;2022-10-22T08:23:03;78.07;;;55.50;;
68315;SDS011;55508;54.368;18.406;2022-10-22T08:25:30;81.43;;;58.03;;
68315;SDS011;55508;54.368;18.406;2022-10-22T08:27:57;92.03;;;60.85;;
68315;SDS011;55508;54.368;18.406;2022-10-22T08:30:24;92.90;;;61.85;;
68315;SDS011;55508;54.368;18.406;2022-10-22T08:32:53;88.22;;;59.15;;
68315;SDS011;55508;54.368;18.406;2022-10-22T08:35:20;82.38;;;57.22;;
68315;SDS011;55508;54.368;18.406;2022-10-22T08:37:47;90.57;;;59.78;;
68315;SDS011;55508;54.368;18.406;2022-10-22T08:40:33;83.63;;;55.15;;
68315;SDS011;55508;54.368;18.406;2022-10-22T08:51:07;83.22;;;53.08;;
68315;SDS011;55508;54.368;18.406;2022-10-22T08:53:40;80.32;;;52.92;;
68315;SDS011;55508;54.368;18.406;2022-10-22T08:56:09;78.40;;;48.28;;
68315;SDS011;55508;54.368;18.406;2022-10-22T09:01:32;75.50;;;49.17;;
68315;SDS011;55508;54.368;18.406;2022-10-22T09:04:04;76.47;;;47.55;;
68315;SDS011;55508;54.368;18.406;2022-10-22T09:06:54;87.40;;;50.33;;
68315;SDS011;55508;54.368;18.406;2022-10-22T09:09:25;82.43;;;50.10;;
68315;SDS011;55508;54.368;18.406;2022-10-22T09:11:55;74.05;;;45.90;;
68315;SDS011;55508;54.368;18.406;2022-10-22T09:14:23;74.32;;;46.40;;
68315;SDS011;55508;54.368;18.406;2022-10-22T09:16:57;79.72;;;46.83;;
68315;SDS011;55508;54.368;18.406;2022-10-22T09:25:27;75.97;;;46.17;;
68315;SDS011;55508;54.368;18.406;2022-10-22T09:27:57;72.63;;;45.67;;
68315;SDS011;55508;54.368;18.406;2022-10-22T09:30:34;76.25;;;47.15;;
68315;SDS011;55508;54.368;18.406;2022-10-22T09:33:10;69.88;;;45.22;;
68315;SDS011;55508;54.368;18.406;2022-10-22T09:35:47;75.32;;;44.55;;
68315;SDS011;55508;54.368;18.406;2022-10-22T09:38:25;74.82;;;45.35;;
68315;SDS011;55508;54.368;18.406;2022-10-22T09:40:54;73.20;;;45.05;;
68315;SDS011;55508;54.368;18.406;2022-10-22T09:43:22;76.95;;;46.50;;
68315;SDS011;55508;54.368;18.406;2022-10-22T09:45:57;75.45;;;45.40;;
68315;SDS011;55508;54.368;18.406;2022-10-22T09:53:59;81.25;;;47.67;;
68315;SDS011;55508;54.368;18.406;2022-10-22T09:59:02;83.72;;;47.33;;
68315;SDS011;55508;54.368;18.406;2022-10-22T10:01:35;77.90;;;46.42;;
68315;SDS011;55508;54.368;18.406;2022-10-22T10:04:07;75.57;;;43.47;;
68315;SDS011;55508;54.368;18.406;2022-10-22T10:06:36;77.60;;;44.35;;
68315;SDS011;55508;54.368;18.406;2022-10-22T10:11:45;68.45;;;39.92;;
68315;SDS011;55508;54.368;18.406;2022-10-22T10:27:45;49.17;;;29.80;;
68315;SDS011;55508;54.368;18.406;2022-10-22T10:30:20;50.30;;;30.70;;
68315;SDS011;55508;54.368;18.406;2022-10-22T10:35:26;43.15;;;28.00;;
68315;SDS011;55508;54.368;18.406;2022-10-22T10:40:36;39.47;;;27.15;;
68315;SDS011;55508;54.368;18.406;2022-10-22T10:46:05;39.00;;;26.15;;
68315;SDS011;55508;54.368;18.406;2022-10-22T10:49:09;37.23;;;24.33;;
68315;SDS011;55508;54.368;18.406;2022-10-22T10:57:18;37.40;;;24.40;;
68315;SDS011;55508;54.368;18.406;2022-10-22T11:00:18;34.25;;;23.85;;
68315;SDS011;55508;54.368;18.406;2022-10-22T11:05:40;39.28;;;25.88;;
68315;SDS011;55508;54.368;18.406;2022-10-22T11:10:56;45.00;;;29.17;;
68315;SDS011;55508;54.368;18.406;2022-10-22T11:29:09;31.00;;;23.13;;
68315;SDS011;55508;54.368;18.406;2022-10-22T11:31:38;32.78;;;20.23;;
68315;SDS011;55508;54.368;18.406;2022-10-22T11:34:12;37.50;;;22.75;;
68315;SDS011;55508;54.368;18.406;2022-10-22T11:37:01;37.42;;;24.52;;
68315;SDS011;55508;54.368;18.406;2022-10-22T11:42:20;39.47;;;22.05;;
68315;SDS011;55508;54.368;18.406;2022-10-22T11:51:27;39.13;;;21.83;;
68315;SDS011;55508;54.368;18.406;2022-10-22T11:53:34;42.63;;;23.77;;
68315;SDS011;55508;54.368;18.406;2022-10-22T11:56:20;47.15;;;24.20;;
68315;SDS011;55508;54.368;18.406;2022-10-22T11:58:49;47.53;;;23.50;;
68315;SDS011;55508;54.368;18.406;2022-10-22T12:01:21;46.10;;;24.92;;
68315;SDS011;55508;54.368;18.406;2022-10-22T12:06:53;56.00;;;30.83;;
68315;SDS011;55508;54.368;18.406;2022-10-22T12:09:27;57.08;;;30.20;;
68315;SDS011;55508;54.368;18.406;2022-10-22T12:12:09;62.47;;;31.95;;
68315;SDS011;55508;54.368;18.406;2022-10-22T12:17:26;63.78;;;31.40;;
68315;SDS011;55508;54.368;18.406;2022-10-22T12:22:27;76.95;;;34.70;;
68315;SDS011;55508;54.368;18.406;2022-10-22T12:24:58;69.93;;;36.67;;
68315;SDS011;55508;54.368;18.406;2022-10-22T12:27:33;76.45;;;36.63;;
68315;SDS011;55508;54.368;18.406;2022-10-22T12:30:18;76.32;;;36.30;;
68315;SDS011;55508;54.368;18.406;2022-10-22T12:32:50;78.85;;;38.67;;
68315;SDS011;55508;54.368;18.406;2022-10-22T12:35:20;84.95;;;38.72;;
68315;SDS011;55508;54.368;18.406;2022-10-22T12:38:12;84.63;;;40.97;;
68315;SDS011;55508;54.368;18.406;2022-10-22T12:40:44;79.68;;;41.10;;
68315;SDS011;55508;54.368;18.406;2022-10-22T12:45:46;85.93;;;42.13;;
68315;SDS011;55508;54.368;18.406;2022-10-22T12:48:15;87.30;;;43.05;;
68315;SDS011;55508;54.368;18.406;2022-10-22T12:50:53;82.20;;;41.90;;
68315;SDS011;55508;54.368;18.406;2022-10-22T12:55:51;92.13;;;46.08;;
68315;SDS011;55508;54.368;18.406;2022-10-22T12:58:20;93.38;;;44.80;;
68315;SDS011;55508;54.368;18.406;2022-10-22T13:00:55;96.70;;;45.13;;
68315;SDS011;55508;54.368;18.406;2022-10-22T13:03:25;93.00;;;43.83;;
68315;SDS011;55508;54.368;18.406;2022-10-22T13:05:55;98.13;;;45.97;;
68315;SDS011;55508;54.368;18.406;2022-10-22T13:08:22;106.75;;;49.63;;
68315;SDS011;55508;54.368;18.406;2022-10-22T13:10:53;102.00;;;49.35;;
68315;SDS011;55508;54.368;18.406;2022-10-22T13:13:28;112.70;;;50.45;;
68315;SDS011;55508;54.368;18.406;2022-10-22T13:16:11;103.50;;;49.50;;
68315;SDS011;55508;54.368;18.406;2022-10-22T13:18:59;111.20;;;50.33;;
68315;SDS011;55508;54.368;18.406;2022-10-22T13:24:01;119.45;;;51.72;;
68315;SDS011;55508;54.368;18.406;2022-10-22T13:26:30;110.38;;;50.85;;
68315;SDS011;55508;54.368;18.406;2022-10-22T13:29:08;114.55;;;53.25;;
68315;SDS011;55508;54.368;18.406;2022-10-22T13:31:36;109.57;;;49.97;;
68315;SDS011;55508;54.368;18.406;2022-10-22T13:34:18;117.78;;;52.65;;
68315;SDS011;55508;54.368;18.406;2022-10-22T13:36:47;119.68;;;51.33;;
68315;SDS011;55508;54.368;18.406;2022-10-22T13:39:18;115.00;;;52.22;;
68315;SDS011;55508;54.368;18.406;2022-10-22T13:41:47;122.78;;;53.22;;
68315;SDS011;55508;54.368;18.406;2022-10-22T13:44:16;117.25;;;52.63;;
68315;SDS011;55508;54.368;18.406;2022-10-22T13:46:45;121.70;;;53.15;;
68315;SDS011;55508;54.368;18.406;2022-10-22T13:49:15;121.40;;;52.92;;
68315;SDS011;55508;54.368;18.406;2022-10-22T13:51:44;119.63;;;52.25;;
68315;SDS011;55508;54.368;18.406;2022-10-22T13:54:13;112.07;;;46.22;;
68315;SDS011;55508;54.368;18.406;2022-10-22T13:56:42;117.57;;;47.03;;
68315;SDS011;55508;54.368;18.406;2022-10-22T13:59:10;108.60;;;45.45;;
68315;SDS011;55508;54.368;18.406;2022-10-22T14:01:37;121.63;;;46.63;;
68315;SDS011;55508;54.368;18.406;2022-10-22T14:04:05;123.32;;;47.67;;
68315;SDS011;55508;54.368;18.406;2022-10-22T14:06:33;108.93;;;43.30;;
68315;SDS011;55508;54.368;18.406;2022-10-22T14:09:03;110.03;;;44.63;;
68315;SDS011;55508;54.368;18.406;2022-10-22T14:11:31;110.20;;;43.45;;
68315;SDS011;55508;54.368;18.406;2022-10-22T14:14:00;110.70;;;42.20;;
68315;SDS011;55508;54.368;18.406;2022-10-22T14:16:30;116.07;;;45.25;;
68315;SDS011;55508;54.368;18.406;2022-10-22T14:18:58;107.30;;;40.78;;
68315;SDS011;55508;54.368;18.406;2022-10-22T14:21:32;106.22;;;42.70;;
68315;SDS011;55508;54.368;18.406;2022-10-22T14:24:00;106.78;;;40.53;;
68315;SDS011;55508;54.368;18.406;2022-10-22T14:26:28;111.50;;;43.97;;
68315;SDS011;55508;54.368;18.406;2022-10-22T14:28:59;101.57;;;39.53;;
68315;SDS011;55508;54.368;18.406;2022-10-22T14:31:36;100.57;;;40.75;;
68315;SDS011;55508;54.368;18.406;2022-10-22T14:34:11;95.40;;;38.72;;
68315;SDS011;55508;54.368;18.406;2022-10-22T14:36:40;89.80;;;37.92;;
68315;SDS011;55508;54.368;18.406;2022-10-22T14:39:09;90.78;;;36.22;;
68315;SDS011;55508;54.368;18.406;2022-10-22T14:41:37;92.78;;;38.53;;
68315;SDS011;55508;54.368;18.406;2022-10-22T14:44:04;94.95;;;38.28;;
68315;SDS011;55508;54.368;18.406;2022-10-22T14:46:31;89.70;;;37.40;;
68315;SDS011;55508;54.368;18.406;2022-10-22T14:48:59;88.18;;;35.15;;
68315;SDS011;55508;54.368;18.406;2022-10-22T14:51:26;98.20;;;37.38;;
68315;SDS011;55508;54.368;18.406;2022-10-22T14:53:53;93.60;;;36.78;;
68315;SDS011;55508;54.368;18.406;2022-10-22T14:56:20;97.95;;;38.20;;
68315;SDS011;55508;54.368;18.406;2022-10-22T15:02:25;94.90;;;38.70;;
68315;SDS011;55508;54.368;18.406;2022-10-22T15:04:52;96.88;;;38.75;;
68315;SDS011;55508;54.368;18.406;2022-10-22T15:07:19;87.00;;;36.92;;
68315;SDS011;55508;54.368;18.406;2022-10-22T15:09:47;95.82;;;38.30;;
68315;SDS011;55508;54.368;18.406;2022-10-22T15:12:14;96.18;;;36.70;;
68315;SDS011;55508;54.368;18.406;2022-10-22T15:14:41;99.05;;;37.70;;
68315;SDS011;55508;54.368;18.406;2022-10-22T15:17:08;89.65;;;36.20;;
68315;SDS011;55508;54.368;18.406;2022-10-22T15:19:35;93.60;;;38.63;;
68315;SDS011;55508;54.368;18.406;2022-10-22T15:22:02;98.07;;;40.75;;
68315;SDS011;55508;54.368;18.406;2022-10-22T15:24:32;101.18;;;42.45;;
68315;SDS011;55508;54.368;18.406;2022-10-22T15:26:59;100.07;;;42.55;;
68315;SDS011;55508;54.368;18.406;2022-10-22T15:29:29;103.78;;;41.20;;
68315;SDS011;55508;54.368;18.406;2022-10-22T15:31:58;100.93;;;39.67;;
68315;SDS011;55508;54.368;18.406;2022-10-22T15:34:27;101.25;;;39.65;;
68315;SDS011;55508;54.368;18.406;2022-10-22T15:37:01;94.13;;;37.35;;
68315;SDS011;55508;54.368;18.406;2022-10-22T15:39:30;91.43;;;39.05;;
68315;SDS011;55508;54.368;18.406;2022-10-22T15:41:57;98.25;;;38.92;;
68315;SDS011;55508;54.368;18.406;2022-10-22T15:44:26;99.60;;;39.90;;
68315;SDS011;55508;54.368;18.406;2022-10-22T15:46:55;102.90;;;40.75;;
68315;SDS011;55508;54.368;18.406;2022-10-22T15:49:24;113.75;;;42.85;;
68315;SDS011;55508;54.368;18.406;2022-10-22T15:51:55;113.78;;;40.35;;
68315;SDS011;55508;54.368;18.406;2022-10-22T15:54:23;113.18;;;42.25;;
68315;SDS011;55508;54.368;18.406;2022-10-22T15:56:51;123.13;;;42.92;;
68315;SDS011;55508;54.368;18.406;2022-10-22T15:59:19;132.57;;;44.78;;
68315;SDS011;55508;54.368;18.406;2022-10-22T16:01:46;146.07;;;44.80;;
68315;SDS011;55508;54.368;18.406;2022-10-22T16:04:14;152.07;;;46.72;;
68315;SDS011;55508;54.368;18.406;2022-10-22T16:06:42;147.95;;;41.63;;
68315;SDS011;55508;54.368;18.406;2022-10-22T16:09:12;156.38;;;45.13;;
68315;SDS011;55508;54.368;18.406;2022-10-22T16:11:43;167.10;;;46.05;;
68315;SDS011;55508;54.368;18.406;2022-10-22T16:14:11;167.73;;;46.85;;
68315;SDS011;55508;54.368;18.406;2022-10-22T16:16:41;181.15;;;47.72;;
68315;SDS011;55508;54.368;18.406;2022-10-22T16:19:10;180.35;;;49.00;;
68315;SDS011;55508;54.368;18.406;2022-10-22T16:21:38;176.73;;;46.08;;
68315;SDS011;55508;54.368;18.406;2022-10-22T16:24:06;189.55;;;51.00;;
68315;SDS011;55508;54.368;18.406;2022-10-22T16:26:34;178.70;;;49.67;;
68315;SDS011;55508;54.368;18.406;2022-10-22T16:29:01;182.65;;;50.08;;
68315;SDS011;55508;54.368;18.406;2022-10-22T16:31:29;195.82;;;54.03;;
68315;SDS011;55508;54.368;18.406;2022-10-22T16:33:56;178.50;;;48.05;;
68315;SDS011;55508;54.368;18.406;2022-10-22T16:36:24;180.20;;;49.17;;